Time;durP1;ratioP1;P1;durP2;ratioP2;P2;SDS_P1;SDS_P2;PMS_P1;PMS_P2;Temp;Humidity;BMP_temperature;BMP_pressure;BME280_temperature;BME280_humidity;BME280_pressure;Samples;Min_cycle;Max_cycle;Signal;HPM_P1;HPM_P2
2023/11/15 00:01:53;;;;;;;8.95;5.05;;;;;;;;;;4192050;28;20039;-60
2023/11/15 00:03:54;;;;;;;8.90;5.18;;;;;;;;;;4197255;28;20041;-60
2023/11/15 00:05:56;;;;;;;12.43;5.75;;;;;;;;;;4197429;28;20526;-60
2023/11/15 00:07:59;;;;;;;10.02;5.50;;;;;;;;;;4195791;28;20118;-60
2023/11/15 00:10:03;;;;;;;5.47;4.93;;;;;;;;;;4180595;28;20045;-60
2023/11/15 00:12:04;;;;;;;10.35;7.03;;;;;;;;;;4183030;28;20091;-60
2023/11/15 00:14:07;;;;;;;10.93;5.40;;;;;;;;;;4197447;28;20040;-60
2023/11/15 00:16:08;;;;;;;7.25;6.45;;;;;;;;;;4196933;28;20570;-60
2023/11/15 00:18:13;;;;;;;10.75;6.10;;;;;;;;;;4197039;28;20120;-60
2023/11/15 00:20:15;;;;;;;7.95;5.95;;;;;;;;;;4195781;28;20511;-59
2023/11/15 00:22:17;;;;;;;8.85;6.63;;;;;;;;;;4197404;28;20068;-59
2023/11/15 00:24:19;;;;;;;16.70;6.03;;;;;;;;;;4196948;28;20070;-60
2023/11/15 00:26:20;;;;;;;10.48;5.53;;;;;;;;;;4197020;28;20044;-59
2023/11/15 00:28:22;;;;;;;6.53;4.82;;;;;;;;;;4196844;28;20048;-60
2023/11/15 00:30:24;;;;;;;8.10;6.00;;;;;;;;;;4196928;28;20496;-59
2023/11/15 00:32:25;;;;;;;6.97;4.97;;;;;;;;;;4197260;28;20364;-60
2023/11/15 00:34:27;;;;;;;5.57;4.50;;;;;;;;;;4197041;28;20282;-60
2023/11/15 00:36:29;;;;;;;8.37;5.97;;;;;;;;;;4196975;28;20048;-60
2023/11/15 00:38:30;;;;;;;5.63;4.57;;;;;;;;;;4197011;28;20036;-60
2023/11/15 00:40:32;;;;;;;7.05;3.92;;;;;;;;;;4196832;28;20055;-60
2023/11/15 00:42:33;;;;;;;6.70;4.55;;;;;;;;;;4196979;28;20097;-60
2023/11/15 00:44:35;;;;;;;7.57;4.57;;;;;;;;;;4182632;28;20386;-60
2023/11/15 00:46:37;;;;;;;7.10;3.35;;;;;;;;;;4180344;28;20057;-60
2023/11/15 00:48:40;;;;;;;6.50;3.97;;;;;;;;;;4180332;28;20053;-60
2023/11/15 00:50:41;;;;;;;4.70;2.45;;;;;;;;;;4145306;28;20108;-60
2023/11/15 00:52:43;;;;;;;5.40;3.25;;;;;;;;;;4180325;28;20041;-60
2023/11/15 00:54:44;;;;;;;3.30;3.03;;;;;;;;;;4181089;28;20053;-60
2023/11/15 00:56:46;;;;;;;4.13;3.60;;;;;;;;;;4183570;28;20527;-60
2023/11/15 00:58:48;;;;;;;5.55;3.20;;;;;;;;;;4183441;28;20279;-60
2023/11/15 01:00:54;;;;;;;9.20;3.08;;;;;;;;;;4186098;28;20044;-60
2023/11/15 01:02:57;;;;;;;8.45;3.40;;;;;;;;;;4199945;28;20396;-60
2023/11/15 01:04:59;;;;;;;3.38;3.08;;;;;;;;;;4199929;28;20033;-60
2023/11/15 01:07:01;;;;;;;6.45;4.40;;;;;;;;;;4199976;28;20048;-60
2023/11/15 01:09:07;;;;;;;4.65;3.47;;;;;;;;;;4198273;28;20036;-60
2023/11/15 01:11:10;;;;;;;3.40;3.17;;;;;;;;;;4200339;28;20048;-60
2023/11/15 01:13:12;;;;;;;6.60;3.83;;;;;;;;;;4200092;28;20045;-60
2023/11/15 01:15:14;;;;;;;8.23;3.67;;;;;;;;;;4199838;28;20090;-60
2023/11/15 01:17:16;;;;;;;4.22;3.90;;;;;;;;;;4199510;28;20060;-60
2023/11/15 01:19:18;;;;;;;5.75;4.28;;;;;;;;;;4199612;28;20072;-60
2023/11/15 01:21:20;;;;;;;4.65;3.95;;;;;;;;;;4198342;28;20036;-60
2023/11/15 01:23:21;;;;;;;2.88;2.85;;;;;;;;;;4199594;28;20090;-60
2023/11/15 01:25:23;;;;;;;3.92;3.63;;;;;;;;;;4199681;28;20180;-60
2023/11/15 01:27:25;;;;;;;2.80;2.25;;;;;;;;;;4199684;28;20517;-60
2023/11/15 01:29:27;;;;;;;6.75;2.88;;;;;;;;;;4199701;28;20052;-61
2023/11/15 01:31:28;;;;;;;3.30;3.10;;;;;;;;;;4199523;28;20043;-61
2023/11/15 01:33:30;;;;;;;2.95;2.75;;;;;;;;;;4199511;28;20086;-60
2023/11/15 01:35:32;;;;;;;4.18;2.55;;;;;;;;;;4199654;28;20043;-61
2023/11/15 01:37:34;;;;;;;;;;;;;;;;;;4199895;28;20041;-61
2023/11/15 01:39:36;;;;;;;2.95;1.90;;;;;;;;;;4195699;28;20407;-61
2023/11/15 01:41:39;;;;;;;2.05;1.88;;;;;;;;;;4182820;28;20033;-61
2023/11/15 01:43:41;;;;;;;5.63;2.08;;;;;;;;;;4183002;28;20215;-60
2023/11/15 01:45:46;;;;;;;5.43;2.13;;;;;;;;;;4182763;28;20038;-61
2023/11/15 01:47:48;;;;;;;7.70;1.60;;;;;;;;;;4182975;28;20048;-61
2023/11/15 01:49:50;;;;;;;4.82;1.85;;;;;;;;;;4182629;28;20063;-61
2023/11/15 01:51:52;;;;;;;6.82;2.65;;;;;;;;;;4182713;28;20041;-61
2023/11/15 01:53:54;;;;;;;5.43;2.58;;;;;;;;;;4182604;28;20041;-61
2023/11/15 01:55:56;;;;;;;4.77;2.17;;;;;;;;;;4182645;28;20033;-60
2023/11/15 01:57:58;;;;;;;4.10;1.90;;;;;;;;;;4181879;28;20041;-60
2023/11/15 01:59:59;;;;;;;5.45;2.17;;;;;;;;;;4182501;28;20067;-60
2023/11/15 02:02:01;;;;;;;2.42;2.20;;;;;;;;;;4195433;28;20594;-60
2023/11/15 02:04:04;;;;;;;2.60;1.92;;;;;;;;;;4199357;28;20032;-60
2023/11/15 02:06:06;;;;;;;6.75;1.77;;;;;;;;;;4198282;28;20047;-61
2023/11/15 02:08:09;;;;;;;4.78;2.55;;;;;;;;;;4198852;28;20412;-60
2023/11/15 02:10:12;;;;;;;6.53;2.28;;;;;;;;;;4198674;28;20044;-61
2023/11/15 02:12:14;;;;;;;8.05;3.55;;;;;;;;;;4199012;28;20524;-60
2023/11/15 02:14:16;;;;;;;6.50;3.30;;;;;;;;;;4198978;28;20044;-61
2023/11/15 02:16:18;;;;;;;4.15;1.92;;;;;;;;;;4198604;28;20400;-61
2023/11/15 02:18:21;;;;;;;;;;;;;;;;;;4199217;28;20437;-60
2023/11/15 02:20:23;;;;;;;2.95;1.60;;;;;;;;;;4198626;28;19920;-61
2023/11/15 02:22:25;;;;;;;4.65;2.55;;;;;;;;;;4198159;28;20457;-60
2023/11/15 02:24:28;;;;;;;3.33;1.80;;;;;;;;;;4198742;28;20484;-61
2023/11/15 02:26:29;;;;;;;5.00;1.70;;;;;;;;;;4198661;28;20381;-61
2023/11/15 02:28:31;;;;;;;4.38;2.28;;;;;;;;;;4198774;28;20060;-61
2023/11/15 02:30:33;;;;;;;4.40;2.53;;;;;;;;;;4198651;28;20040;-61
2023/11/15 02:32:38;;;;;;;4.47;2.70;;;;;;;;;;4198724;28;20699;-60
2023/11/15 02:34:40;;;;;;;4.43;2.40;;;;;;;;;;4197244;28;20077;-61
2023/11/15 02:36:42;;;;;;;5.57;1.98;;;;;;;;;;4187952;28;20116;-60
2023/11/15 02:38:43;;;;;;;6.28;2.28;;;;;;;;;;4182623;28;20067;-61
2023/11/15 02:40:45;;;;;;;2.25;2.05;;;;;;;;;;4181902;28;20071;-60
2023/11/15 02:42:47;;;;;;;2.42;2.22;;;;;;;;;;4182016;28;20087;-61
2023/11/15 02:44:49;;;;;;;4.20;2.10;;;;;;;;;;4181866;28;20036;-60
2023/11/15 02:46:50;;;;;;;8.30;2.75;;;;;;;;;;4181892;28;20037;-60
2023/11/15 02:48:52;;;;;;;4.30;3.33;;;;;;;;;;4181817;28;20037;-60
2023/11/15 02:50:54;;;;;;;3.80;3.03;;;;;;;;;;4180839;28;20043;-61
2023/11/15 02:52:56;;;;;;;2.00;1.90;;;;;;;;;;4181823;28;20071;-60
2023/11/15 02:54:58;;;;;;;4.20;2.08;;;;;;;;;;4181678;28;20044;-60
2023/11/15 02:57:00;;;;;;;4.63;2.20;;;;;;;;;;4181827;28;20033;-60
2023/11/15 02:59:01;;;;;;;2.30;1.50;;;;;;;;;;4181706;28;20040;-60
2023/11/15 03:01:06;;;;;;;2.75;1.83;;;;;;;;;;4186748;28;20082;-61
2023/11/15 03:03:08;;;;;;;3.00;2.20;;;;;;;;;;4197964;28;20045;-61
2023/11/15 03:05:10;;;;;;;4.38;1.77;;;;;;;;;;4189302;28;20033;-61
2023/11/15 03:07:13;;;;;;;2.67;1.70;;;;;;;;;;4184134;28;20102;-60
2023/11/15 03:09:14;;;;;;;3.55;1.63;;;;;;;;;;4191073;28;20072;-60
2023/11/15 03:11:16;;;;;;;2.60;2.30;;;;;;;;;;4181420;28;20052;-60
2023/11/15 03:13:18;;;;;;;5.43;2.30;;;;;;;;;;4195039;28;20349;-60
2023/11/15 03:15:20;;;;;;;1.90;1.70;;;;;;;;;;4198030;28;20290;-60
2023/11/15 03:17:22;;;;;;;8.48;2.08;;;;;;;;;;4197576;28;20072;-60
2023/11/15 03:19:24;;;;;;;2.05;1.95;;;;;;;;;;4196905;28;20066;-60
2023/11/15 03:21:26;;;;;;;4.55;1.60;;;;;;;;;;4197742;28;20040;-59
2023/11/15 03:23:28;;;;;;;2.38;2.10;;;;;;;;;;4195616;28;20416;-60
2023/11/15 03:25:29;;;;;;;3.35;2.00;;;;;;;;;;4191968;28;20439;-60
2023/11/15 03:27:31;;;;;;;4.05;1.73;;;;;;;;;;4195241;28;20047;-60
2023/11/15 03:29:33;;;;;;;2.83;1.48;;;;;;;;;;4181000;28;20078;-61
2023/11/15 03:31:37;;;;;;;4.55;2.08;;;;;;;;;;4181473;28;20056;-60
2023/11/15 03:33:47;;;;;;;3.15;1.83;;;;;;;;;;4181256;28;20091;-60
2023/11/15 03:35:49;;;;;;;2.75;1.60;;;;;;;;;;4181335;28;20048;-61
2023/11/15 03:37:51;;;;;;;3.45;1.70;;;;;;;;;;4181057;28;20052;-60
2023/11/15 03:39:53;;;;;;;5.15;2.17;;;;;;;;;;4180954;28;20041;-60
2023/11/15 03:41:55;;;;;;;2.60;1.63;;;;;;;;;;4181184;28;20046;-60
2023/11/15 03:43:57;;;;;;;4.28;1.60;;;;;;;;;;4180990;28;20060;-60
2023/11/15 03:45:59;;;;;;;4.53;1.80;;;;;;;;;;4180840;28;20041;-59
2023/11/15 03:48:02;;;;;;;4.10;1.58;;;;;;;;;;4181033;28;20041;-60
2023/11/15 03:50:04;;;;;;;3.33;2.08;;;;;;;;;;4181138;28;20045;-61
2023/11/15 03:52:07;;;;;;;1.73;1.63;;;;;;;;;;4180816;28;20366;-61
2023/11/15 03:54:08;;;;;;;4.43;1.73;;;;;;;;;;4184478;28;20513;-61
2023/11/15 03:56:10;;;;;;;5.22;1.45;;;;;;;;;;4180748;28;20045;-61
2023/11/15 03:58:12;;;;;;;5.78;1.70;;;;;;;;;;4192552;28;20043;-60
2023/11/15 04:00:16;;;;;;;2.05;1.85;;;;;;;;;;4196958;28;20052;-61
2023/11/15 04:02:18;;;;;;;2.65;1.83;;;;;;;;;;4184347;28;20057;-61
2023/11/15 04:04:20;;;;;;;2.13;2.00;;;;;;;;;;4180605;28;20491;-60
2023/11/15 04:06:22;;;;;;;4.35;1.83;;;;;;;;;;4180640;28;20514;-61
2023/11/15 04:08:24;;;;;;;3.13;2.45;;;;;;;;;;4181063;28;20115;-61
2023/11/15 04:10:25;;;;;;;7.17;2.13;;;;;;;;;;4195205;28;20109;-60
2023/11/15 04:12:27;;;;;;;10.43;2.22;;;;;;;;;;4195824;28;20317;-61
2023/11/15 04:14:28;;;;;;;3.10;2.35;;;;;;;;;;4195962;28;20505;-61
2023/11/15 04:16:30;;;;;;;4.25;2.13;;;;;;;;;;4196760;28;20039;-61
2023/11/15 04:18:33;;;;;;;10.45;2.40;;;;;;;;;;4196766;28;20102;-60
2023/11/15 04:20:34;;;;;;;6.50;2.28;;;;;;;;;;4196765;28;20047;-61
2023/11/15 04:22:36;;;;;;;4.75;1.85;;;;;;;;;;4196895;28;20493;-61
2023/11/15 04:24:38;;;;;;;1.90;1.80;;;;;;;;;;4196910;28;20504;-61
2023/11/15 04:26:40;;;;;;;;;;;;;;;;;;4197411;28;20115;-62
2023/11/15 04:28:42;;;;;;;4.13;2.05;;;;;;;;;;4190582;28;19963;-60
2023/11/15 04:30:43;;;;;;;5.72;2.47;;;;;;;;;;4180055;28;20045;-61
2023/11/15 04:32:46;;;;;;;1.98;1.88;;;;;;;;;;4180414;28;20041;-60
2023/11/15 04:34:47;;;;;;;1.88;1.70;;;;;;;;;;4180335;28;20040;-61
2023/11/15 04:36:49;;;;;;;3.15;1.83;;;;;;;;;;4180317;28;20045;-60
2023/11/15 04:38:51;;;;;;;1.90;1.80;;;;;;;;;;4180301;28;20037;-60
2023/11/15 04:40:52;;;;;;;5.63;2.22;;;;;;;;;;4180290;28;20408;-61
2023/11/15 04:42:54;;;;;;;3.38;1.65;;;;;;;;;;4180427;28;20047;-60
2023/11/15 04:44:57;;;;;;;5.97;1.85;;;;;;;;;;4180251;28;20067;-61
2023/11/15 04:46:58;;;;;;;;;;;;;;;;;;4180836;28;20378;-61
2023/11/15 04:49:00;;;;;;;11.60;3.25;;;;;;;;;;4180286;28;19920;-61
2023/11/15 04:51:02;;;;;;;2.45;2.25;;;;;;;;;;4180449;28;20123;-60
2023/11/15 04:53:07;;;;;;;4.00;2.38;;;;;;;;;;4180922;28;20040;-61
2023/11/15 04:55:10;;;;;;;3.95;1.42;;;;;;;;;;4196810;28;20078;-61
2023/11/15 04:57:11;;;;;;;5.45;1.67;;;;;;;;;;4196733;28;20036;-61
2023/11/15 04:59:13;;;;;;;3.40;2.80;;;;;;;;;;4196866;28;20408;-61
2023/11/15 05:01:15;;;;;;;6.43;2.97;;;;;;;;;;4196408;28;20039;-61
2023/11/15 05:03:19;;;;;;;13.10;3.28;;;;;;;;;;4196617;28;20037;-61
2023/11/15 05:05:21;;;;;;;6.85;2.47;;;;;;;;;;4196600;28;20028;-61
2023/11/15 05:07:24;;;;;;;5.72;2.30;;;;;;;;;;4196733;28;20037;-61
2023/11/15 05:09:27;;;;;;;3.63;1.63;;;;;;;;;;4194863;28;20144;-61
2023/11/15 05:11:29;;;;;;;5.13;1.75;;;;;;;;;;4196728;28;20051;-61
2023/11/15 05:13:31;;;;;;;7.70;2.65;;;;;;;;;;4196621;28;20044;-61
2023/11/15 05:15:33;;;;;;;3.42;1.85;;;;;;;;;;4196333;28;20044;-61
2023/11/15 05:17:34;;;;;;;6.88;1.90;;;;;;;;;;4196478;28;20523;-61
2023/11/15 05:19:36;;;;;;;12.85;5.32;;;;;;;;;;4196638;28;20064;-61
2023/11/15 05:21:38;;;;;;;9.65;7.63;;;;;;;;;;4196589;28;20408;-61
2023/11/15 05:23:40;;;;;;;3.10;2.88;;;;;;;;;;4196532;28;20029;-61
2023/11/15 05:25:41;;;;;;;3.67;3.00;;;;;;;;;;4183826;28;20378;-61
2023/11/15 05:27:45;;;;;;;5.47;2.30;;;;;;;;;;4179992;28;20497;-61
2023/11/15 05:29:46;;;;;;;6.47;2.47;;;;;;;;;;4178643;28;20299;-61
2023/11/15 05:31:48;;;;;;;3.67;2.63;;;;;;;;;;4180412;28;20040;-61
2023/11/15 05:33:50;;;;;;;12.50;9.10;;;;;;;;;;4179916;28;20366;-61
2023/11/15 05:35:52;;;;;;;4.53;4.07;;;;;;;;;;4179867;28;20037;-61
2023/11/15 05:37:56;;;;;;;10.98;6.43;;;;;;;;;;4179881;28;20037;-61
2023/11/15 05:39:57;;;;;;;6.95;5.55;;;;;;;;;;4179760;28;20090;-61
2023/11/15 05:41:59;;;;;;;8.18;5.03;;;;;;;;;;4181031;28;20041;-61
2023/11/15 05:44:01;;;;;;;7.80;4.35;;;;;;;;;;4182900;28;20076;-61
2023/11/15 05:46:03;;;;;;;8.68;3.25;;;;;;;;;;4182712;28;20033;-61
2023/11/15 05:48:05;;;;;;;2.65;2.22;;;;;;;;;;4182831;28;20041;-61
2023/11/15 05:50:09;;;;;;;5.15;2.33;;;;;;;;;;4189621;28;20071;-61
2023/11/15 05:52:12;;;;;;;2.33;1.48;;;;;;;;;;4199562;28;20044;-61
2023/11/15 05:54:14;;;;;;;2.88;2.67;;;;;;;;;;4199170;28;20071;-62
2023/11/15 05:56:15;;;;;;;3.28;2.78;;;;;;;;;;4199326;28;20040;-61
2023/11/15 05:58:17;;;;;;;3.35;2.60;;;;;;;;;;4199086;28;20044;-61
2023/11/15 06:00:20;;;;;;;4.13;2.57;;;;;;;;;;4198769;28;20703;-61
2023/11/15 06:02:22;;;;;;;4.10;2.63;;;;;;;;;;4198634;28;20566;-62
2023/11/15 06:04:24;;;;;;;3.17;2.53;;;;;;;;;;4199168;28;20040;-61
2023/11/15 06:06:27;;;;;;;5.88;2.97;;;;;;;;;;4199084;28;20123;-60
2023/11/15 06:08:29;;;;;;;3.00;2.72;;;;;;;;;;4198570;28;20082;-61
2023/11/15 06:10:30;;;;;;;2.80;2.25;;;;;;;;;;4198819;28;20045;-61
2023/11/15 06:12:32;;;;;;;7.33;3.70;;;;;;;;;;4199152;28;20040;-61
2023/11/15 06:14:34;;;;;;;2.53;2.30;;;;;;;;;;4198831;28;20083;-61
2023/11/15 06:16:37;;;;;;;2.88;2.45;;;;;;;;;;4198812;28;20076;-61
2023/11/15 06:18:39;;;;;;;7.13;2.50;;;;;;;;;;4198735;28;20036;-62
2023/11/15 06:20:41;;;;;;;2.75;2.55;;;;;;;;;;4196638;28;20484;-61
2023/11/15 06:22:42;;;;;;;4.30;1.80;;;;;;;;;;4182474;28;20033;-61
2023/11/15 06:24:44;;;;;;;2.50;1.30;;;;;;;;;;4182135;28;20041;-61
2023/11/15 06:26:49;;;;;;;3.20;2.20;;;;;;;;;;4182048;28;20275;-61
2023/11/15 06:28:51;;;;;;;3.40;1.88;;;;;;;;;;4182241;28;20451;-61
2023/11/15 06:30:53;;;;;;;;;;;;;;;;;;4182421;28;20063;-61
2023/11/15 06:32:54;;;;;;;4.00;1.60;;;;;;;;;;4182233;28;19920;-61
2023/11/15 06:34:57;;;;;;;2.75;1.85;;;;;;;;;;4182294;28;20041;-61
2023/11/15 06:36:59;;;;;;;3.03;1.52;;;;;;;;;;4180807;28;20041;-61
2023/11/15 06:39:03;;;;;;;2.15;1.95;;;;;;;;;;4181783;28;20049;-60
2023/11/15 06:41:08;;;;;;;7.93;2.67;;;;;;;;;;4182231;28;20048;-61
2023/11/15 06:43:10;;;;;;;3.83;2.60;;;;;;;;;;4181876;28;20033;-61
2023/11/15 06:45:14;;;;;;;3.30;2.10;;;;;;;;;;4181844;28;20041;-61
2023/11/15 06:47:16;;;;;;;4.45;2.78;;;;;;;;;;4196352;28;20366;-61
2023/11/15 06:49:18;;;;;;;3.00;2.13;;;;;;;;;;4198300;28;20128;-61
2023/11/15 06:51:20;;;;;;;3.15;2.85;;;;;;;;;;4198540;28;20045;-61
2023/11/15 06:53:22;;;;;;;13.75;2.85;;;;;;;;;;4198270;28;20041;-61
2023/11/15 06:55:23;;;;;;;6.93;3.03;;;;;;;;;;4198489;28;20040;-61
2023/11/15 06:57:25;;;;;;;2.75;1.70;;;;;;;;;;4198134;28;20032;-61
2023/11/15 06:59:27;;;;;;;3.15;2.05;;;;;;;;;;4198080;28;20032;-61
2023/11/15 07:01:30;;;;;;;8.77;2.15;;;;;;;;;;4197606;28;20431;-61
2023/11/15 07:03:31;;;;;;;2.58;1.60;;;;;;;;;;4198012;28;20036;-61
2023/11/15 07:05:33;;;;;;;5.50;2.95;;;;;;;;;;4197895;28;20040;-61
2023/11/15 07:07:35;;;;;;;6.68;2.10;;;;;;;;;;4197889;28;20496;-61
2023/11/15 07:09:37;;;;;;;3.65;3.38;;;;;;;;;;4197843;28;20086;-61
2023/11/15 07:11:42;;;;;;;6.80;4.03;;;;;;;;;;4197890;28;20048;-61
2023/11/15 07:13:47;;;;;;;5.13;3.30;;;;;;;;;;4197944;28;20044;-61
2023/11/15 07:15:50;;;;;;;3.85;2.45;;;;;;;;;;4197652;28;20040;-61
2023/11/15 07:17:54;;;;;;;3.78;2.00;;;;;;;;;;4187368;28;20057;-61
2023/11/15 07:19:56;;;;;;;6.05;2.55;;;;;;;;;;4181086;28;20086;-60
2023/11/15 07:21:57;;;;;;;5.57;2.30;;;;;;;;;;4181272;28;20041;-60
2023/11/15 07:23:59;;;;;;;7.17;2.80;;;;;;;;;;4181456;28;20298;-60
2023/11/15 07:26:01;;;;;;;3.33;2.97;;;;;;;;;;4181565;28;20275;-60
2023/11/15 07:28:03;;;;;;;4.78;2.85;;;;;;;;;;4181016;28;20087;-60
2023/11/15 07:30:07;;;;;;;8.90;2.58;;;;;;;;;;4180988;28;20076;-60
2023/11/15 07:32:10;;;;;;;3.08;2.13;;;;;;;;;;4181004;28;20159;-60
2023/11/15 07:34:11;;;;;;;6.30;2.00;;;;;;;;;;4181050;28;20052;-60
2023/11/15 07:36:13;;;;;;;7.03;2.83;;;;;;;;;;4180966;28;20052;-60
2023/11/15 07:38:15;;;;;;;5.75;2.42;;;;;;;;;;4181078;28;20432;-60
2023/11/15 07:40:16;;;;;;;6.25;2.83;;;;;;;;;;4180919;28;20123;-60
2023/11/15 07:42:19;;;;;;;5.05;2.25;;;;;;;;;;4185344;28;20066;-61
2023/11/15 07:44:21;;;;;;;7.80;2.53;;;;;;;;;;4197380;28;20272;-60
2023/11/15 07:46:24;;;;;;;5.80;2.53;;;;;;;;;;4197412;28;20044;-60
2023/11/15 07:48:25;;;;;;;8.45;2.72;;;;;;;;;;4197232;28;20290;-60
2023/11/15 07:50:28;;;;;;;5.28;2.05;;;;;;;;;;4197426;28;20067;-60
2023/11/15 07:52:33;;;;;;;3.53;2.47;;;;;;;;;;4197663;28;20068;-60
2023/11/15 07:54:34;;;;;;;6.78;3.28;;;;;;;;;;4197229;28;20062;-61
2023/11/15 07:56:36;;;;;;;3.63;2.58;;;;;;;;;;4197663;28;20036;-61
2023/11/15 07:58:40;;;;;;;9.82;3.38;;;;;;;;;;4197148;28;20036;-61
2023/11/15 08:00:41;;;;;;;4.57;2.53;;;;;;;;;;4196883;28;20051;-61
2023/11/15 08:02:47;;;;;;;12.25;3.63;;;;;;;;;;4197157;28;20111;-61
2023/11/15 08:04:50;;;;;;;3.20;3.05;;;;;;;;;;4195268;28;20051;-61
2023/11/15 08:06:51;;;;;;;4.68;2.90;;;;;;;;;;4197126;28;20049;-61
2023/11/15 08:08:54;;;;;;;7.55;2.80;;;;;;;;;;4188308;28;20045;-61
2023/11/15 08:10:56;;;;;;;8.88;3.58;;;;;;;;;;4180737;28;20045;-61
2023/11/15 08:12:57;;;;;;;7.40;4.28;;;;;;;;;;4180376;28;20072;-61
2023/11/15 08:14:59;;;;;;;5.80;2.17;;;;;;;;;;4180649;28;20068;-61
2023/11/15 08:17:01;;;;;;;10.80;2.50;;;;;;;;;;4180512;28;20337;-61
2023/11/15 08:19:03;;;;;;;4.47;3.33;;;;;;;;;;4180591;28;20041;-61
2023/11/15 08:21:05;;;;;;;4.40;2.30;;;;;;;;;;4180311;28;20082;-61
2023/11/15 08:23:08;;;;;;;6.68;2.00;;;;;;;;;;4180277;28;20094;-61
2023/11/15 08:25:10;;;;;;;8.23;3.35;;;;;;;;;;4180435;28;20099;-61
2023/11/15 08:27:12;;;;;;;8.88;2.65;;;;;;;;;;4180360;28;20045;-61
2023/11/15 08:29:14;;;;;;;4.63;2.15;;;;;;;;;;4180382;28;20102;-60
2023/11/15 08:31:16;;;;;;;6.47;2.38;;;;;;;;;;4180257;28;20048;-60
2023/11/15 08:33:17;;;;;;;5.35;2.53;;;;;;;;;;4180330;28;20041;-60
2023/11/15 08:35:20;;;;;;;5.25;2.75;;;;;;;;;;4180532;28;20043;-60
2023/11/15 08:37:22;;;;;;;8.23;2.45;;;;;;;;;;4180558;28;20132;-60
2023/11/15 08:39:23;;;;;;;6.70;2.90;;;;;;;;;;4191517;28;20036;-60
2023/11/15 08:41:25;;;;;;;9.30;3.42;;;;;;;;;;4196883;28;20336;-60
2023/11/15 08:43:26;;;;;;;4.47;2.53;;;;;;;;;;4197179;28;20041;-60
2023/11/15 08:45:28;;;;;;;8.10;2.90;;;;;;;;;;4197063;28;20043;-60
2023/11/15 08:47:31;;;;;;;6.68;3.38;;;;;;;;;;4196994;28;20075;-60
2023/11/15 08:49:33;;;;;;;4.50;2.10;;;;;;;;;;4196670;28;20385;-60
2023/11/15 08:51:35;;;;;;;10.68;2.80;;;;;;;;;;4197309;28;20086;-60
2023/11/15 08:53:39;;;;;;;10.95;2.42;;;;;;;;;;4196748;28;20045;-60
2023/11/15 08:55:44;;;;;;;11.77;2.53;;;;;;;;;;4196925;28;20443;-60
2023/11/15 08:57:45;;;;;;;2.30;2.10;;;;;;;;;;4196816;28;20041;-60
2023/11/15 08:59:47;;;;;;;15.05;3.15;;;;;;;;;;4196723;28;20049;-60
2023/11/15 09:01:49;;;;;;;13.50;3.58;;;;;;;;;;4196521;28;20048;-60
2023/11/15 09:03:50;;;;;;;8.15;2.00;;;;;;;;;;4196662;28;20048;-61
2023/11/15 09:05:52;;;;;;;4.95;1.73;;;;;;;;;;4195281;28;20074;-60
2023/11/15 09:07:55;;;;;;;6.22;1.52;;;;;;;;;;4195692;28;20068;-60
2023/11/15 09:09:57;;;;;;;8.55;2.53;;;;;;;;;;4180117;28;20052;-60
2023/11/15 09:12:03;;;;;;;5.50;2.70;;;;;;;;;;4180098;28;20094;-61
2023/11/15 09:14:08;;;;;;;8.20;2.60;;;;;;;;;;4179990;28;20496;-61
2023/11/15 09:16:12;;;;;;;12.23;3.05;;;;;;;;;;4180223;28;20564;-60
2023/11/15 09:18:14;;;;;;;11.35;3.30;;;;;;;;;;4182851;28;20132;-60
2023/11/15 09:20:21;;;;;;;;;;;;;;;;;;4183472;28;20033;-60
2023/11/15 09:22:23;;;;;;;10.23;3.00;;;;;;;;;;4182991;28;20323;-61
2023/11/15 09:24:26;;;;;;;10.30;2.17;;;;;;;;;;4182961;28;20095;-60
2023/11/15 09:26:30;;;;;;;10.65;2.00;;;;;;;;;;4181799;28;20045;-60
2023/11/15 09:28:33;;;;;;;7.68;2.38;;;;;;;;;;4182921;28;20049;-60
2023/11/15 09:30:35;;;;;;;5.40;3.03;;;;;;;;;;4182873;28;20041;-60
2023/11/15 09:32:36;;;;;;;5.03;1.67;;;;;;;;;;4182863;28;20076;-61
2023/11/15 09:34:38;;;;;;;9.25;2.50;;;;;;;;;;4186185;28;20040;-61
2023/11/15 09:36:42;;;;;;;6.85;2.50;;;;;;;;;;4199564;28;20493;-61
2023/11/15 09:38:45;;;;;;;9.00;2.17;;;;;;;;;;4199538;28;20039;-60
2023/11/15 09:40:49;;;;;;;4.05;1.73;;;;;;;;;;4199296;28;20115;-61
2023/11/15 09:42:51;;;;;;;7.68;2.03;;;;;;;;;;4199490;28;20037;-61
2023/11/15 09:44:53;;;;;;;;;;;;;;;;;;4199765;28;20500;-61
2023/11/15 09:46:57;;;;;;;9.63;2.45;;;;;;;;;;4199191;28;20380;-61
2023/11/15 09:48:59;;;;;;;5.53;2.30;;;;;;;;;;4199273;28;20051;-61
2023/11/15 09:51:09;;;;;;;9.75;2.00;;;;;;;;;;4197761;28;20059;-60
2023/11/15 09:53:11;;;;;;;5.53;1.65;;;;;;;;;;4199192;28;20448;-61
2023/11/15 09:55:13;;;;;;;7.03;1.98;;;;;;;;;;4199160;28;20058;-61
2023/11/15 09:57:17;;;;;;;11.23;2.28;;;;;;;;;;4199064;28;20097;-61
2023/11/15 09:59:19;;;;;;;5.97;2.05;;;;;;;;;;4199116;28;20040;-60
2023/11/15 10:01:21;;;;;;;7.35;2.83;;;;;;;;;;4198738;28;20040;-61
2023/11/15 10:03:23;;;;;;;;;;;;;;;;;;4199612;28;20040;-61
2023/11/15 10:05:28;;;;;;;7.38;2.47;;;;;;;;;;4198973;28;19928;-61
2023/11/15 10:07:31;;;;;;;10.55;2.20;;;;;;;;;;4182444;28;20457;-61
2023/11/15 10:09:42;;;;;;;10.55;2.05;;;;;;;;;;4182289;28;20049;-61
2023/11/15 10:11:48;;;;;;;8.23;1.77;;;;;;;;;;4182325;28;20041;-61
2023/11/15 10:14:06;;;;;;;9.73;2.13;;;;;;;;;;4197644;28;20047;-60
2023/11/15 10:16:24;;;;;;;6.97;2.50;;;;;;;;;;4182232;28;20045;-61
2023/11/15 10:18:32;;;;;;;5.05;1.38;;;;;;;;;;4181967;28;20378;-60
2023/11/15 10:20:34;;;;;;;2.92;1.60;;;;;;;;;;4182149;28;20037;-60
2023/11/15 10:22:43;;;;;;;5.88;1.95;;;;;;;;;;4182153;28;20040;-61
2023/11/15 10:25:04;;;;;;;6.57;1.70;;;;;;;;;;4182354;28;20140;-61
2023/11/15 10:27:08;;;;;;;12.02;1.85;;;;;;;;;;4182038;28;20037;-60
2023/11/15 10:29:12;;;;;;;10.70;2.13;;;;;;;;;;4181987;28;20421;-60
2023/11/15 10:31:15;;;;;;;8.45;2.47;;;;;;;;;;4187694;28;20400;-60
2023/11/15 10:33:18;;;;;;;6.50;1.50;;;;;;;;;;4198760;28;20044;-60
2023/11/15 10:35:27;;;;;;;5.03;1.73;;;;;;;;;;4198564;28;20039;-60
2023/11/15 10:37:31;;;;;;;10.15;2.33;;;;;;;;;;4198570;28;20052;-60
2023/11/15 10:39:40;;;;;;;10.10;2.42;;;;;;;;;;4198442;28;20048;-60
2023/11/15 10:41:43;;;;;;;7.47;3.03;;;;;;;;;;4198486;28;20059;-60
2023/11/15 10:43:51;;;;;;;5.13;1.80;;;;;;;;;;4198610;28;20067;-60
2023/11/15 10:45:55;;;;;;;6.30;1.48;;;;;;;;;;4198199;28;20044;-60
2023/11/15 10:48:04;;;;;;;5.28;1.95;;;;;;;;;;4198394;28;20041;-60
2023/11/15 10:50:13;;;;;;;11.43;2.85;;;;;;;;;;4198353;28;20123;-60
2023/11/15 10:52:18;;;;;;;9.63;2.70;;;;;;;;;;4178974;28;20040;-61
2023/11/15 10:54:21;;;;;;;3.03;1.58;;;;;;;;;;4181954;28;20040;-61
2023/11/15 10:56:24;;;;;;;7.32;2.05;;;;;;;;;;4180508;28;20049;-61
2023/11/15 10:58:26;;;;;;;2.95;1.38;;;;;;;;;;4183586;28;20385;-61
2023/11/15 11:00:30;;;;;;;7.25;1.95;;;;;;;;;;4193240;28;20036;-61
2023/11/15 11:02:33;;;;;;;5.47;2.03;;;;;;;;;;4192978;28;20065;-61
2023/11/15 11:04:39;;;;;;;3.92;1.40;;;;;;;;;;4194557;28;20045;-61
2023/11/15 11:06:47;;;;;;;1.98;1.58;;;;;;;;;;4196786;28;20043;-61
2023/11/15 11:08:55;;;;;;;7.03;1.65;;;;;;;;;;4197694;28;20503;-61
2023/11/15 11:11:03;;;;;;;5.03;1.55;;;;;;;;;;4191220;28;20036;-61
2023/11/15 11:13:23;;;;;;;6.50;1.55;;;;;;;;;;4188334;28;20045;-61
2023/11/15 11:15:31;;;;;;;5.05;1.40;;;;;;;;;;4181477;28;20044;-61
2023/11/15 11:17:34;;;;;;;2.78;0.90;;;;;;;;;;4182013;28;20521;-61
2023/11/15 11:19:41;;;;;;;1.55;1.20;;;;;;;;;;4197431;28;20041;-61
2023/11/15 11:21:42;;;;;;;;;;;;;;;;;;4198226;28;20123;-61
2023/11/15 11:24:03;;;;;;;4.90;1.05;;;;;;;;;;4197099;28;19989;-60
2023/11/15 11:26:23;;;;;;;3.08;1.20;;;;;;;;;;4197559;28;20385;-60
2023/11/15 11:28:27;;;;;;;9.43;1.77;;;;;;;;;;4193740;28;20040;-60
2023/11/15 11:30:28;;;;;;;11.20;1.30;;;;;;;;;;4196633;28;20036;-60
2023/11/15 11:32:31;;;;;;;4.63;1.33;;;;;;;;;;4197805;28;20102;-61
2023/11/15 11:34:34;;;;;;;2.60;1.15;;;;;;;;;;4194541;28;20044;-62
2023/11/15 11:36:50;;;;;;;3.10;1.20;;;;;;;;;;4194394;28;20062;-62
2023/11/15 11:38:54;;;;;;;10.05;1.20;;;;;;;;;;4188065;28;20052;-60
2023/11/15 11:40:55;;;;;;;3.53;1.08;;;;;;;;;;4195537;28;20541;-60
2023/11/15 11:43:13;;;;;;;4.13;1.13;;;;;;;;;;4192220;28;20450;-60
2023/11/15 11:45:15;;;;;;;4.55;1.10;;;;;;;;;;4191737;28;20052;-61
2023/11/15 11:47:17;;;;;;;2.50;1.65;;;;;;;;;;4189626;28;20037;-61
2023/11/15 11:49:19;;;;;;;5.25;1.75;;;;;;;;;;4179856;28;20045;-61
2023/11/15 11:51:21;;;;;;;3.40;1.27;;;;;;;;;;4191980;28;20049;-60
2023/11/15 11:53:23;;;;;;;3.22;1.20;;;;;;;;;;4193532;28;20060;-60
2023/11/15 11:55:25;;;;;;;2.58;0.90;;;;;;;;;;4196416;28;20040;-60
2023/11/15 11:57:27;;;;;;;2.75;1.10;;;;;;;;;;4197308;28;20078;-60
2023/11/15 11:59:29;;;;;;;2.75;1.48;;;;;;;;;;4183898;28;20065;-61
2023/11/15 12:01:31;;;;;;;2.90;1.13;;;;;;;;;;4162689;28;20049;-60
2023/11/15 12:03:35;;;;;;;3.13;1.17;;;;;;;;;;4180063;28;20080;-60
2023/11/15 12:05:37;;;;;;;3.35;1.17;;;;;;;;;;4182525;28;20044;-60
2023/11/15 12:07:44;;;;;;;2.45;1.27;;;;;;;;;;4196880;28;20072;-61
2023/11/15 12:09:46;;;;;;;3.22;1.30;;;;;;;;;;4196098;28;20083;-61
2023/11/15 12:11:48;;;;;;;3.88;1.00;;;;;;;;;;4197164;28;20072;-60
2023/11/15 12:13:50;;;;;;;4.97;0.82;;;;;;;;;;4185352;28;20091;-61
2023/11/15 12:15:52;;;;;;;4.05;1.10;;;;;;;;;;4180409;28;20041;-61
2023/11/15 12:17:58;;;;;;;6.43;1.58;;;;;;;;;;4180504;28;20049;-61